createdAt,value
2018-12-22T00:02:12.332Z,12.83
2018-12-22T00:04:39.758Z,12.57
2018-12-22T00:07:07.280Z,14.53
2018-12-22T00:09:34.728Z,14.90
2018-12-22T00:12:02.179Z,14.87
2018-12-22T00:14:29.812Z,13.80
2018-12-22T00:16:57.275Z,13.73
2018-12-22T00:19:24.787Z,13.20
2018-12-22T00:21:52.392Z,14.67
2018-12-22T00:24:20.084Z,15.03
2018-12-22T00:26:47.580Z,13.40
2018-12-22T00:29:15.041Z,13.30
2018-12-22T00:31:42.548Z,13.70
2018-12-22T00:34:09.949Z,15.77
2018-12-22T00:36:37.543Z,15.40
2018-12-22T00:39:06.404Z,15.30
2018-12-22T00:41:33.968Z,15.07
2018-12-22T00:44:01.410Z,16.73
2018-12-22T00:46:28.872Z,14.97
2018-12-22T00:48:56.336Z,15.80
2018-12-22T00:51:24.062Z,14.83
2018-12-22T00:53:51.677Z,15.67
2018-12-22T00:56:19.113Z,15.80
2018-12-22T00:58:46.839Z,14.87
2018-12-22T01:01:14.217Z,14.03
2018-12-22T01:03:41.614Z,14.43
2018-12-22T01:06:09.004Z,15.20
2018-12-22T01:08:36.424Z,13.77
2018-12-22T01:11:03.968Z,14.20
2018-12-22T01:13:31.455Z,14.20
2018-12-22T01:15:59.193Z,13.87
2018-12-22T01:18:26.790Z,14.20
2018-12-22T01:20:54.228Z,14.07
2018-12-22T01:23:21.623Z,13.97
2018-12-22T01:25:49.004Z,14.00
2018-12-22T01:28:16.436Z,15.00
2018-12-22T01:30:43.878Z,13.93
2018-12-22T01:33:11.277Z,14.63
2018-12-22T01:35:38.845Z,14.20
2018-12-22T01:38:06.243Z,14.00
2018-12-22T01:40:34.169Z,14.93
2018-12-22T01:43:01.770Z,14.13
2018-12-22T01:45:29.435Z,13.50
2018-12-22T01:47:56.812Z,13.67
2018-12-22T01:50:24.206Z,13.93
2018-12-22T01:52:51.660Z,14.87
2018-12-22T01:55:19.102Z,13.50
2018-12-22T01:57:46.573Z,15.50
2018-12-22T02:00:13.967Z,14.30
2018-12-22T02:02:41.505Z,14.20
2018-12-22T02:05:08.888Z,13.70
2018-12-22T02:07:36.517Z,15.27
2018-12-22T02:10:05.200Z,14.03
2018-12-22T02:12:32.620Z,14.40
2018-12-22T02:15:00.018Z,13.17
2018-12-22T02:17:27.413Z,14.60
2018-12-22T02:19:55.126Z,13.70
2018-12-22T02:22:22.515Z,14.90
2018-12-22T02:24:50.041Z,13.40
2018-12-22T02:27:17.685Z,13.90
2018-12-22T02:29:45.118Z,14.80
2018-12-22T02:32:12.825Z,13.40
2018-12-22T02:34:40.519Z,14.07
2018-12-22T02:37:07.901Z,14.10
2018-12-22T02:39:35.523Z,13.40
2018-12-22T02:42:03.047Z,13.47
2018-12-22T02:44:30.511Z,14.03
2018-12-22T02:46:58.224Z,13.40
2018-12-22T02:49:25.769Z,13.90
2018-12-22T02:51:53.215Z,13.80
2018-12-22T02:54:20.600Z,13.33
2018-12-22T02:56:48.221Z,14.13
2018-12-22T02:59:15.605Z,13.80
2018-12-22T03:01:43.513Z,13.23
2018-12-22T03:04:10.905Z,12.40
2018-12-22T03:06:38.465Z,14.40
2018-12-22T03:09:06.193Z,12.97
2018-12-22T03:11:33.620Z,13.50
2018-12-22T03:14:01.135Z,13.80
2018-12-22T03:16:28.693Z,12.97
2018-12-22T03:18:56.271Z,14.00
2018-12-22T03:21:23.732Z,12.90
2018-12-22T03:23:51.366Z,13.33
2018-12-22T03:26:18.792Z,14.20
2018-12-22T03:28:46.335Z,12.57
2018-12-22T03:31:13.853Z,13.20
2018-12-22T03:33:41.714Z,13.33
2018-12-22T03:36:09.111Z,12.93
2018-12-22T03:38:36.493Z,13.60
2018-12-22T03:41:04.090Z,13.20
2018-12-22T03:43:31.550Z,14.07
2018-12-22T03:45:58.944Z,13.30
2018-12-22T03:48:26.453Z,12.77
2018-12-22T03:50:53.845Z,13.13
2018-12-22T03:53:21.375Z,11.47
2018-12-22T03:55:48.832Z,12.37
2018-12-22T03:58:16.353Z,13.17
2018-12-22T04:00:44.090Z,12.93
2018-12-22T04:03:12.000Z,14.30
2018-12-22T04:05:40.030Z,13.90
2018-12-22T04:08:07.429Z,13.60
2018-12-22T04:10:35.219Z,13.67
2018-12-22T04:13:02.699Z,13.37
2018-12-22T04:15:30.594Z,14.23
2018-12-22T04:17:58.409Z,14.00
2018-12-22T04:20:26.279Z,14.20
2018-12-22T04:22:53.665Z,14.27
2018-12-22T04:25:21.326Z,14.40
2018-12-22T04:27:48.784Z,14.20
2018-12-22T04:30:16.508Z,14.80
2018-12-22T04:32:44.115Z,14.37
2018-12-22T04:35:11.833Z,14.53
2018-12-22T04:37:39.313Z,14.63
2018-12-22T04:40:06.889Z,13.97
2018-12-22T04:42:34.371Z,13.50
2018-12-22T04:45:01.769Z,13.20
2018-12-22T04:47:29.354Z,13.43
2018-12-22T04:49:56.749Z,12.73
2018-12-22T04:52:24.160Z,12.80
2018-12-22T04:54:51.904Z,11.20
2018-12-22T04:57:19.494Z,11.00
2018-12-22T04:59:46.887Z,11.60
2018-12-22T05:02:14.400Z,10.77
2018-12-22T05:04:42.154Z,10.77
2018-12-22T05:07:09.974Z,11.40
2018-12-22T05:09:37.375Z,11.20
2018-12-22T05:12:04.929Z,10.50
2018-12-22T05:14:32.567Z,11.43
2018-12-22T05:17:00.023Z,11.57
2018-12-22T05:19:27.713Z,11.40
2018-12-22T05:21:55.162Z,12.20
2018-12-22T05:24:22.761Z,12.30
2018-12-22T05:26:50.356Z,11.83
2018-12-22T05:29:17.757Z,12.30
2018-12-22T05:31:45.392Z,12.70
2018-12-22T05:34:12.872Z,12.63
2018-12-22T05:36:40.343Z,12.60
2018-12-22T05:39:07.736Z,13.53
2018-12-22T05:41:35.170Z,12.20
2018-12-22T05:44:03.010Z,12.30
2018-12-22T05:46:30.552Z,13.03
2018-12-22T05:48:58.015Z,12.70
2018-12-22T05:51:25.469Z,11.87
2018-12-22T05:53:53.148Z,11.30
2018-12-22T05:56:20.543Z,12.60
2018-12-22T05:58:47.976Z,11.50
2018-12-22T06:01:15.713Z,11.67
2018-12-22T06:03:43.568Z,11.30
2018-12-22T06:06:11.044Z,11.50
2018-12-22T06:08:38.629Z,11.07
2018-12-22T06:11:06.085Z,12.30
2018-12-22T06:13:33.808Z,11.70
2018-12-22T06:16:01.276Z,11.80
2018-12-22T06:18:28.666Z,10.77
2018-12-22T06:20:56.444Z,11.03
2018-12-22T06:23:23.832Z,11.87
2018-12-22T06:25:51.602Z,11.07
2018-12-22T06:28:19.372Z,11.90
2018-12-22T06:30:46.838Z,12.27
2018-12-22T06:33:14.224Z,12.50
2018-12-22T06:35:41.753Z,13.50
2018-12-22T06:38:09.145Z,13.93
2018-12-22T06:40:36.661Z,13.90
2018-12-22T06:43:04.059Z,13.80
2018-12-22T06:45:31.689Z,12.17
2018-12-22T06:47:59.393Z,15.73
2018-12-22T06:50:26.908Z,16.70
2018-12-22T06:52:54.364Z,16.60
2018-12-22T06:55:21.958Z,16.73
2018-12-22T06:57:49.417Z,18.33
2018-12-22T07:00:17.949Z,19.47
2018-12-22T07:02:45.796Z,18.70
2018-12-22T07:05:13.249Z,18.90
2018-12-22T07:07:40.899Z,20.03
2018-12-22T07:10:09.101Z,18.80
2018-12-22T07:12:36.618Z,19.40
2018-12-22T07:15:04.664Z,18.80
2018-12-22T07:17:32.617Z,19.77
2018-12-22T07:20:00.414Z,20.83
2018-12-22T07:22:27.947Z,18.57
2018-12-22T07:24:55.328Z,19.20
2018-12-22T07:27:22.866Z,18.93
2018-12-22T07:29:50.249Z,17.13
2018-12-22T07:32:17.636Z,17.60
2018-12-22T07:34:45.038Z,17.00
2018-12-22T07:37:12.426Z,17.60
2018-12-22T07:39:39.820Z,16.60
2018-12-22T07:42:07.357Z,16.03
2018-12-22T07:44:34.807Z,16.27
2018-12-22T07:47:02.470Z,16.20
2018-12-22T07:49:29.859Z,15.93
2018-12-22T07:51:57.251Z,16.43
2018-12-22T07:54:24.718Z,15.80
2018-12-22T07:56:52.349Z,15.40
2018-12-22T07:59:19.749Z,16.20
2018-12-22T08:01:47.141Z,16.13
2018-12-22T08:04:14.540Z,15.57
2018-12-22T08:06:41.923Z,15.70
2018-12-22T08:09:09.323Z,16.07
2018-12-22T08:11:36.884Z,15.93
2018-12-22T08:14:04.430Z,15.30
2018-12-22T08:16:32.141Z,15.07
2018-12-22T08:18:59.525Z,15.20
2018-12-22T08:21:27.333Z,14.27
2018-12-22T08:23:54.726Z,14.90
2018-12-22T08:26:22.260Z,14.70
2018-12-22T08:28:49.771Z,14.40
2018-12-22T08:31:17.272Z,13.83
2018-12-22T08:33:45.021Z,13.60
2018-12-22T08:36:12.444Z,13.83
2018-12-22T08:38:39.936Z,13.87
2018-12-22T08:41:07.374Z,12.90
2018-12-22T08:43:34.863Z,13.60
2018-12-22T08:46:02.256Z,12.73
2018-12-22T08:48:29.653Z,13.57
2018-12-22T08:50:57.062Z,13.90
2018-12-22T08:53:24.545Z,13.30
2018-12-22T08:55:52.149Z,13.53
2018-12-22T08:58:19.614Z,12.57
2018-12-22T09:00:52.133Z,12.00
2018-12-22T09:03:16.568Z,13.03
2018-12-22T09:05:43.979Z,14.53
2018-12-22T09:08:11.356Z,14.40
2018-12-22T09:10:38.772Z,13.53
2018-12-22T09:13:06.209Z,12.77
2018-12-22T09:15:33.652Z,11.20
2018-12-22T09:18:01.311Z,11.73
2018-12-22T09:20:31.759Z,12.03
2018-12-22T09:22:59.277Z,11.67
2018-12-22T09:25:26.748Z,11.63
2018-12-22T09:27:54.133Z,12.07
2018-12-22T09:30:21.530Z,11.43
2018-12-22T09:32:48.904Z,11.40
2018-12-22T09:35:16.362Z,11.53
2018-12-22T09:37:43.904Z,10.70
2018-12-22T09:40:11.488Z,10.17
2018-12-22T09:42:38.961Z,10.73
2018-12-22T09:45:07.250Z,10.60
2018-12-22T09:47:36.442Z,10.33
2018-12-22T09:50:07.758Z,11.23
2018-12-22T09:52:35.152Z,10.83
2018-12-22T09:55:02.793Z,10.80
2018-12-22T09:57:30.258Z,10.80
2018-12-22T09:59:57.726Z,10.70
2018-12-22T10:02:25.127Z,10.83
2018-12-22T10:04:52.687Z,10.00
2018-12-22T10:07:20.077Z,10.17
2018-12-22T10:09:47.538Z,9.93
2018-12-22T10:12:15.324Z,10.37
2018-12-22T10:14:42.869Z,10.13
2018-12-22T10:17:10.325Z,9.73
2018-12-22T10:19:37.855Z,11.33
2018-12-22T10:22:05.371Z,10.73
2018-12-22T10:24:32.880Z,9.90
2018-12-22T10:27:00.264Z,10.17
2018-12-22T10:29:27.835Z,10.83
2018-12-22T10:31:55.409Z,10.43
2018-12-22T10:34:22.929Z,10.37
2018-12-22T10:36:50.325Z,10.50
2018-12-22T10:39:17.706Z,10.00
2018-12-22T10:41:45.092Z,10.33
2018-12-22T10:44:12.481Z,10.07
2018-12-22T10:46:40.019Z,10.67
2018-12-22T10:49:07.406Z,10.13
2018-12-22T10:51:34.971Z,11.50
2018-12-22T10:54:02.442Z,11.13
2018-12-22T10:56:29.828Z,12.10
2018-12-22T10:58:57.317Z,11.20
2018-12-22T11:01:26.596Z,12.03
2018-12-22T11:03:54.464Z,11.77
2018-12-22T11:06:22.062Z,13.00
2018-12-22T11:08:49.458Z,14.40
2018-12-22T11:11:16.849Z,12.97
2018-12-22T11:13:44.440Z,14.50
2018-12-22T11:16:12.177Z,14.47
2018-12-22T11:18:40.015Z,14.70
2018-12-22T11:21:07.829Z,15.60
2018-12-22T11:23:35.764Z,14.90
2018-12-22T11:26:03.166Z,15.00
2018-12-22T11:28:30.569Z,16.10
2018-12-22T11:30:57.956Z,16.47
2018-12-22T11:33:25.357Z,16.90
2018-12-22T11:35:52.936Z,17.33
2018-12-22T11:38:20.378Z,16.23
2018-12-22T11:40:47.764Z,15.13
2018-12-22T11:43:15.167Z,16.37
2018-12-22T11:45:42.887Z,15.53
2018-12-22T11:48:14.025Z,14.60
2018-12-22T11:50:41.632Z,14.93
2018-12-22T11:53:09.111Z,15.00
2018-12-22T11:55:36.581Z,16.10
2018-12-22T11:58:04.018Z,17.60
2018-12-22T12:00:31.404Z,16.73
2018-12-22T12:02:58.807Z,17.47
2018-12-22T12:05:26.269Z,17.30
2018-12-22T12:07:53.704Z,17.20
2018-12-22T12:10:21.148Z,17.13
2018-12-22T12:12:48.711Z,17.90
2018-12-22T12:15:18.722Z,18.53
2018-12-22T12:20:49.268Z,19.53
2018-12-22T12:23:16.747Z,19.07
2018-12-22T12:25:44.235Z,17.30
2018-12-22T12:28:12.001Z,18.00
2018-12-22T12:30:39.515Z,16.57
2018-12-22T12:33:06.982Z,16.07
2018-12-22T12:35:34.376Z,14.67
2018-12-22T12:38:02.317Z,15.23
2018-12-22T12:40:29.849Z,15.07
2018-12-22T12:42:57.339Z,14.33
2018-12-22T12:45:24.810Z,13.33
2018-12-22T12:47:52.387Z,13.60
2018-12-22T12:50:22.740Z,12.57
2018-12-22T12:52:50.316Z,12.53
2018-12-22T12:55:17.813Z,13.50
2018-12-22T12:57:45.210Z,13.17
2018-12-22T13:00:17.886Z,12.57
2018-12-22T13:02:45.272Z,12.40
2018-12-22T13:05:12.664Z,12.40
2018-12-22T13:07:40.109Z,12.80
2018-12-22T13:10:12.491Z,13.07
2018-12-22T13:13:02.873Z,13.20
2018-12-22T13:15:30.402Z,13.57
2018-12-22T13:17:57.895Z,12.87
2018-12-22T13:20:27.186Z,12.93
2018-12-22T13:22:54.757Z,12.50
2018-12-22T13:25:22.360Z,12.10
2018-12-22T13:27:49.824Z,12.20
2018-12-22T13:30:17.288Z,11.80
2018-12-22T13:32:44.699Z,11.40
2018-12-22T13:35:12.302Z,11.57
2018-12-22T13:37:39.901Z,13.50
2018-12-22T13:40:10.978Z,12.80
2018-12-22T13:42:38.469Z,12.30
2018-12-22T13:45:10.868Z,12.10
2018-12-22T13:47:38.430Z,12.00
2018-12-22T13:50:10.720Z,11.90
2018-12-22T13:52:38.306Z,12.33
2018-12-22T13:55:08.572Z,12.93
2018-12-22T13:57:37.641Z,12.20
2018-12-22T14:00:12.205Z,11.47
2018-12-22T14:02:39.661Z,11.77
2018-12-22T14:05:10.699Z,12.60
2018-12-22T14:07:38.080Z,11.50
2018-12-22T14:10:13.283Z,11.33
2018-12-22T14:12:41.265Z,10.67
2018-12-22T14:15:18.039Z,11.63
2018-12-22T14:17:50.140Z,11.40
2018-12-22T14:20:18.316Z,10.93
2018-12-22T14:22:45.825Z,11.90
2018-12-22T14:25:14.408Z,10.67
2018-12-22T14:27:41.873Z,11.43
2018-12-22T14:30:12.289Z,10.30
2018-12-22T14:32:39.746Z,11.00
2018-12-22T14:35:12.121Z,11.60
2018-12-22T14:37:39.573Z,11.73
2018-12-22T14:40:11.199Z,12.30
2018-12-22T14:42:39.005Z,12.23
2018-12-22T14:45:11.778Z,13.23
2018-12-22T14:47:39.238Z,13.07
2018-12-22T14:50:09.974Z,13.23
2018-12-22T14:52:37.369Z,12.87
2018-12-22T14:55:09.480Z,12.70
2018-12-22T14:57:54.852Z,13.13
2018-12-22T15:00:22.233Z,13.23
2018-12-22T15:02:49.794Z,13.30
2018-12-22T15:05:17.346Z,12.87
2018-12-22T15:07:44.827Z,12.80
2018-12-22T15:10:12.297Z,13.03
2018-12-22T15:12:40.028Z,13.00
2018-12-22T15:15:11.122Z,12.73
2018-12-22T15:17:41.419Z,12.83
2018-12-22T15:20:13.433Z,13.47
2018-12-22T15:22:40.888Z,12.40
2018-12-22T15:25:09.167Z,12.40
2018-12-22T15:27:36.652Z,12.80
2018-12-22T15:30:07.924Z,12.30
2018-12-22T15:32:43.868Z,13.50
2018-12-22T15:35:07.246Z,12.30
2018-12-22T15:37:34.726Z,12.13
2018-12-22T15:40:02.761Z,12.30
2018-12-22T15:42:30.231Z,12.07
2018-12-22T15:44:57.667Z,12.20
2018-12-22T15:47:25.056Z,11.90
2018-12-22T15:49:52.573Z,12.00
2018-12-22T15:52:20.033Z,12.43
2018-12-22T15:54:47.430Z,11.73
2018-12-22T15:57:15.030Z,11.90
2018-12-22T15:59:42.808Z,11.90
2018-12-22T16:02:10.192Z,11.23
2018-12-22T16:04:37.652Z,12.00
2018-12-22T16:07:05.080Z,11.87
2018-12-22T16:09:32.829Z,11.73
2018-12-22T16:12:00.214Z,11.60
2018-12-22T16:14:27.613Z,12.63
2018-12-22T16:16:55.277Z,12.27
2018-12-22T16:19:22.805Z,12.10
2018-12-22T16:21:50.188Z,12.10
2018-12-22T16:24:17.933Z,11.80
2018-12-22T16:26:45.455Z,11.27
2018-12-22T16:29:13.423Z,10.47
2018-12-22T16:31:40.930Z,11.37
2018-12-22T16:34:08.347Z,11.57
2018-12-22T16:36:35.903Z,10.97
2018-12-22T16:39:05.784Z,11.70
2018-12-22T16:41:33.485Z,12.10
2018-12-22T16:44:00.883Z,11.13
2018-12-22T16:46:28.360Z,11.33
2018-12-22T16:48:55.740Z,10.93
2018-12-22T16:51:23.177Z,12.47
2018-12-22T16:53:50.578Z,12.30
2018-12-22T16:56:18.174Z,12.30
2018-12-22T16:58:45.902Z,12.33
2018-12-22T17:01:19.801Z,12.20
2018-12-22T17:03:47.252Z,13.20
2018-12-22T17:06:15.224Z,12.80
2018-12-22T17:08:43.115Z,12.53
2018-12-22T17:11:10.929Z,14.27
2018-12-22T17:13:38.360Z,13.17
2018-12-22T17:16:05.872Z,13.97
2018-12-22T17:18:33.249Z,13.30
2018-12-22T17:21:04.528Z,13.13
2018-12-22T17:23:41.361Z,13.53
2018-12-22T17:26:08.816Z,12.80
2018-12-22T17:28:36.267Z,12.60
2018-12-22T17:31:03.784Z,12.27
2018-12-22T17:33:31.607Z,12.23
2018-12-22T17:35:59.048Z,12.37
2018-12-22T17:38:26.508Z,12.57
2018-12-22T17:40:54.391Z,11.93
2018-12-22T17:43:21.974Z,13.20
2018-12-22T17:45:49.370Z,12.57
2018-12-22T17:48:17.162Z,12.60
2018-12-22T17:50:44.548Z,13.93
2018-12-22T17:53:11.950Z,12.90
2018-12-22T17:55:39.708Z,13.73
2018-12-22T17:58:07.124Z,12.77
2018-12-22T18:00:34.512Z,13.40
2018-12-22T18:03:02.007Z,13.87
2018-12-22T18:05:29.439Z,13.80
2018-12-22T18:07:56.931Z,12.90
2018-12-22T18:10:24.344Z,13.00
2018-12-22T18:12:51.799Z,14.40
2018-12-22T18:15:22.389Z,13.60
2018-12-22T18:17:50.042Z,12.43
2018-12-22T18:20:17.649Z,13.60
2018-12-22T18:22:45.049Z,13.37
2018-12-22T18:25:17.910Z,13.50
2018-12-22T18:27:47.078Z,12.83
2018-12-22T18:30:14.698Z,13.20
2018-12-22T18:32:43.580Z,13.87
2018-12-22T18:35:11.412Z,13.13
2018-12-22T18:37:39.397Z,14.73
2018-12-22T18:40:17.530Z,13.53
2018-12-22T18:42:46.131Z,13.47
2018-12-22T18:45:13.661Z,13.17
2018-12-22T18:47:41.942Z,13.40
2018-12-22T18:50:18.417Z,13.33
2018-12-22T18:52:46.284Z,14.63
2018-12-22T18:55:13.748Z,13.77
2018-12-22T18:57:41.185Z,13.40
2018-12-22T19:00:18.068Z,13.60
2018-12-22T19:02:45.473Z,12.80
2018-12-22T19:05:13.757Z,13.10
2018-12-22T19:07:41.269Z,12.60
2018-12-22T19:10:29.510Z,13.77
2018-12-22T19:12:57.162Z,12.30
2018-12-22T19:15:24.956Z,13.77
2018-12-22T19:17:52.430Z,12.43
2018-12-22T19:20:24.588Z,12.93
2018-12-22T19:22:52.243Z,13.23
2018-12-22T19:25:19.841Z,12.40
2018-12-22T19:27:47.237Z,11.93
2018-12-22T19:30:14.713Z,12.83
2018-12-22T19:32:42.464Z,11.30
2018-12-22T19:35:09.937Z,13.03
2018-12-22T19:37:37.517Z,12.20
2018-12-22T19:40:05.009Z,12.10
2018-12-22T19:42:32.542Z,13.27
2018-12-22T19:45:00.194Z,13.20
2018-12-22T19:47:27.634Z,12.60
2018-12-22T19:49:55.216Z,13.10
2018-12-22T19:52:22.938Z,13.70
2018-12-22T19:54:50.590Z,14.23
2018-12-22T19:57:17.981Z,14.07
2018-12-22T19:59:45.473Z,15.23
2018-12-22T20:02:12.968Z,13.37
2018-12-22T20:04:40.356Z,14.80
2018-12-22T20:07:08.310Z,14.27
2018-12-22T20:09:35.693Z,15.37
2018-12-22T20:12:03.128Z,14.80
2018-12-22T20:14:30.521Z,14.60
2018-12-22T20:16:57.924Z,15.30
2018-12-22T20:19:25.394Z,15.90
2018-12-22T20:21:52.787Z,17.17
2018-12-22T20:24:20.502Z,15.27
2018-12-22T20:26:47.893Z,14.17
2018-12-22T20:29:15.296Z,15.97
2018-12-22T20:31:42.689Z,16.50
2018-12-22T20:34:11.151Z,15.10
2018-12-22T20:36:38.985Z,15.83
2018-12-22T20:39:07.162Z,15.33
2018-12-22T20:41:34.711Z,14.70
2018-12-22T20:44:02.279Z,14.30
2018-12-22T20:46:29.736Z,14.60
2018-12-22T20:48:57.143Z,14.70
2018-12-22T20:51:24.538Z,14.00
2018-12-22T20:53:52.203Z,14.27
2018-12-22T20:56:19.649Z,14.40
2018-12-22T20:58:47.042Z,15.27
2018-12-22T21:01:14.476Z,14.30
2018-12-22T21:03:42.040Z,15.47
2018-12-22T21:06:14.894Z,13.67
2018-12-22T21:08:42.805Z,14.10
2018-12-22T21:11:11.246Z,13.67
2018-12-22T21:13:38.671Z,13.20
2018-12-22T21:16:06.480Z,12.87
2018-12-22T21:18:34.000Z,13.37
2018-12-22T21:21:01.457Z,13.30
2018-12-22T21:23:28.937Z,13.33
2018-12-22T21:25:56.498Z,13.60
2018-12-22T21:28:23.979Z,13.90
2018-12-22T21:30:51.685Z,14.17
2018-12-22T21:33:19.139Z,13.93
2018-12-22T21:35:53.272Z,14.03
2018-12-22T21:38:16.434Z,13.97
2018-12-22T21:40:44.375Z,14.87
2018-12-22T21:43:11.837Z,14.17
2018-12-22T21:45:39.275Z,15.80
2018-12-22T21:48:06.680Z,13.53
2018-12-22T21:50:34.069Z,15.67
2018-12-22T21:53:01.665Z,14.07
2018-12-22T21:55:29.056Z,15.40
2018-12-22T21:57:57.002Z,14.83
2018-12-22T22:00:24.459Z,15.57
2018-12-22T22:02:51.913Z,14.10
2018-12-22T22:05:19.382Z,13.67
2018-12-22T22:07:46.825Z,14.43
2018-12-22T22:10:14.208Z,15.03
2018-12-22T22:12:41.939Z,14.50
2018-12-22T22:15:09.562Z,13.10
2018-12-22T22:17:37.083Z,13.90
2018-12-22T22:20:05.858Z,15.53
2018-12-22T22:22:33.249Z,14.03
2018-12-22T22:25:00.648Z,13.60
2018-12-22T22:27:28.050Z,14.30
2018-12-22T22:29:55.516Z,13.87
2018-12-22T22:32:22.915Z,13.50
2018-12-22T22:34:50.429Z,15.20
2018-12-22T22:37:17.886Z,14.90
2018-12-22T22:39:45.613Z,14.83
2018-12-22T22:42:13.068Z,14.50
2018-12-22T22:44:40.488Z,15.20
2018-12-22T22:47:07.976Z,14.40
2018-12-22T22:49:35.861Z,14.47
2018-12-22T22:52:03.317Z,15.40
2018-12-22T22:54:30.765Z,13.30
2018-12-22T22:56:59.412Z,14.53
2018-12-22T22:59:27.296Z,14.07
2018-12-22T23:01:55.374Z,14.10
2018-12-22T23:04:22.778Z,14.83
2018-12-22T23:06:50.305Z,13.73
2018-12-22T23:09:17.688Z,14.30
2018-12-22T23:11:45.089Z,13.97
2018-12-22T23:14:12.486Z,14.60
2018-12-22T23:16:40.204Z,14.23
2018-12-22T23:19:07.610Z,14.50
2018-12-22T23:21:35.257Z,15.13
2018-12-22T23:24:02.959Z,15.70
2018-12-22T23:26:30.373Z,17.50
2018-12-22T23:28:58.037Z,15.23
2018-12-22T23:31:25.494Z,15.67
2018-12-22T23:33:53.065Z,14.53
2018-12-22T23:36:20.682Z,17.53
2018-12-22T23:38:48.177Z,15.40
2018-12-22T23:41:15.649Z,16.20
2018-12-22T23:43:43.107Z,16.07
2018-12-22T23:46:10.557Z,15.90
2018-12-22T23:48:37.969Z,17.10
2018-12-22T23:51:05.497Z,15.80
2018-12-22T23:53:32.966Z,15.20
2018-12-22T23:56:00.363Z,14.80
2018-12-22T23:58:28.146Z,15.60
